Time;durP1;ratioP1;P1;durP2;ratioP2;P2;SDS_P1;SDS_P2;PMS_P1;PMS_P2;Temp;Humidity;BMP_temperature;BMP_pressure;BME280_temperature;BME280_humidity;BME280_pressure;Samples;Min_cycle;Max_cycle;Signal;HPM_P1;HPM_P2
2022/03/12 00:01:35;;;;;;;9.02;2.95;;;8.80;99.90;;;;;;4948783;28;20066;-70
2022/03/12 00:04:04;;;;;;;10.88;2.70;;;8.90;99.90;;;;;;4953887;29;20055;-70
2022/03/12 00:06:31;;;;;;;8.77;2.60;;;8.90;99.90;;;;;;4954937;28;20103;-70
2022/03/12 00:08:58;;;;;;;13.88;2.55;;;8.90;99.90;;;;;;4963631;28;20380;-70
2022/03/12 00:11:34;;;;;;;8.65;3.17;;;8.90;99.90;;;;;;4966946;28;20051;-70
2022/03/12 00:14:03;;;;;;;9.45;2.05;;;8.90;99.90;;;;;;4960860;28;20487;-71
2022/03/12 00:16:31;;;;;;;7.43;2.40;;;8.80;99.90;;;;;;4966558;28;20059;-71
2022/03/12 00:19:01;;;;;;;9.95;2.42;;;8.80;99.90;;;;;;4973689;28;20057;-71
2022/03/12 00:21:30;;;;;;;8.27;3.08;;;8.80;99.90;;;;;;4958778;28;20059;-71
2022/03/12 00:24:00;;;;;;;14.50;3.60;;;8.80;99.90;;;;;;4965421;28;20074;-70
2022/03/12 00:26:28;;;;;;;6.55;2.53;;;8.80;99.90;;;;;;4954786;28;20047;-70
2022/03/12 00:28:55;;;;;;;12.27;2.20;;;8.80;99.90;;;;;;4956787;28;20058;-70
2022/03/12 00:31:22;;;;;;;9.77;3.17;;;8.80;99.90;;;;;;4943202;28;20055;-70
2022/03/12 00:33:52;;;;;;;12.93;4.43;;;8.80;99.90;;;;;;4932990;29;20141;-70
2022/03/12 00:36:19;;;;;;;;;;;8.80;99.90;;;;;;4918143;28;20509;-70
2022/03/12 00:38:46;;;;;;;9.77;2.35;;;8.80;99.90;;;;;;4954546;29;20007;-70
2022/03/12 00:41:13;;;;;;;9.40;2.58;;;8.80;99.90;;;;;;4937405;28;20057;-70
2022/03/12 00:43:41;;;;;;;14.25;4.28;;;8.80;99.90;;;;;;4954961;28;20521;-70
2022/03/12 00:46:08;;;;;;;7.35;2.53;;;8.80;99.90;;;;;;4953687;29;20050;-70
2022/03/12 00:48:36;;;;;;;14.02;2.78;;;8.80;99.90;;;;;;4952106;28;20083;-68
2022/03/12 00:51:08;;;;;;;11.77;3.22;;;8.80;99.90;;;;;;4952809;29;20051;-69
2022/03/12 00:53:36;;;;;;;10.30;2.53;;;8.90;99.90;;;;;;4936699;28;20055;-68
2022/03/12 00:56:04;;;;;;;11.55;3.10;;;8.80;99.90;;;;;;4953335;29;20079;-70
2022/03/12 00:58:31;;;;;;;10.10;3.38;;;8.90;99.90;;;;;;4953312;29;20061;-70
2022/03/12 01:01:01;;;;;;;9.73;3.38;;;8.90;99.90;;;;;;4952882;28;20495;-69
2022/03/12 01:03:28;;;;;;;10.25;2.75;;;8.80;99.90;;;;;;4952084;28;20047;-71
2022/03/12 01:05:55;;;;;;;11.05;3.00;;;8.80;99.90;;;;;;4952574;29;20103;-69
2022/03/12 01:08:25;;;;;;;5.88;2.47;;;8.80;99.90;;;;;;4954108;28;20051;-71
2022/03/12 01:10:53;;;;;;;10.40;2.45;;;8.80;99.90;;;;;;4936569;29;20051;-70
2022/03/12 01:13:21;;;;;;;8.48;2.63;;;8.80;99.90;;;;;;4937858;29;20052;-70
2022/03/12 01:15:48;;;;;;;9.57;2.72;;;8.80;99.90;;;;;;4952621;29;20051;-70
2022/03/12 01:18:17;;;;;;;11.45;3.67;;;8.80;99.90;;;;;;4954386;29;20317;-68
2022/03/12 01:20:44;;;;;;;19.35;9.18;;;8.80;99.90;;;;;;4954204;28;20079;-61
2022/03/12 01:23:13;;;;;;;9.45;4.47;;;8.80;99.90;;;;;;4964325;28;20130;-73
2022/03/12 01:25:41;;;;;;;15.90;7.22;;;8.80;99.90;;;;;;4940974;29;20048;-72
2022/03/12 01:28:09;;;;;;;14.10;6.40;;;8.80;99.90;;;;;;4952375;28;20511;-72
2022/03/12 01:30:36;;;;;;;11.57;2.63;;;8.80;99.90;;;;;;4950847;28;20057;-72
2022/03/12 01:33:04;;;;;;;11.85;2.85;;;8.80;99.90;;;;;;4954778;28;20043;-72
2022/03/12 01:35:31;;;;;;;9.27;2.67;;;8.80;99.90;;;;;;4936598;29;20048;-72
2022/03/12 01:37:59;;;;;;;14.77;4.38;;;8.80;99.90;;;;;;4952281;28;20057;-72
2022/03/12 01:40:26;;;;;;;10.93;3.35;;;8.80;99.90;;;;;;4953091;28;20075;-73
2022/03/12 01:42:54;;;;;;;8.65;3.85;;;8.80;99.90;;;;;;4953761;29;20126;-72
2022/03/12 01:45:26;;;;;;;9.65;3.13;;;8.80;99.90;;;;;;4951641;28;20047;-73
2022/03/12 01:47:58;;;;;;;11.98;2.58;;;8.80;99.90;;;;;;4937543;29;20052;-73
2022/03/12 01:50:27;;;;;;;8.52;2.70;;;8.80;99.90;;;;;;4946571;28;20051;-72
2022/03/12 01:52:58;;;;;;;11.07;2.20;;;8.80;99.90;;;;;;4953486;28;20063;-72
2022/03/12 01:55:30;;;;;;;13.48;3.90;;;8.70;99.90;;;;;;4935992;29;20122;-72
2022/03/12 01:58:02;;;;;;;9.20;2.90;;;8.70;99.90;;;;;;4936763;29;20047;-72
2022/03/12 02:00:43;;;;;;;11.93;2.78;;;8.70;99.90;;;;;;4951724;29;20043;-72
2022/03/12 02:03:11;;;;;;;11.57;3.03;;;8.70;99.90;;;;;;4943857;28;20044;-72
2022/03/12 02:05:38;;;;;;;11.10;3.25;;;8.70;99.90;;;;;;4950445;29;20055;-72
2022/03/12 02:08:05;;;;;;;8.93;2.95;;;8.70;99.90;;;;;;4952105;28;20055;-72
2022/03/12 02:10:33;;;;;;;13.95;2.92;;;8.70;99.90;;;;;;4951942;29;20053;-72
2022/03/12 02:13:00;;;;;;;11.07;2.22;;;8.70;99.90;;;;;;4954115;28;20070;-72
2022/03/12 02:15:28;;;;;;;12.73;3.78;;;8.70;99.90;;;;;;4951976;29;20046;-72
2022/03/12 02:17:56;;;;;;;16.17;2.90;;;8.70;99.90;;;;;;4952153;29;20047;-72
2022/03/12 02:20:23;;;;;;;10.80;3.05;;;8.70;99.90;;;;;;4952686;29;20065;-72
2022/03/12 02:22:53;;;;;;;14.15;3.75;;;8.70;99.90;;;;;;4936982;29;20413;-72
2022/03/12 02:25:32;;;;;;;14.10;3.67;;;8.70;99.90;;;;;;4936083;29;20047;-72
2022/03/12 02:28:00;;;;;;;18.80;5.90;;;8.70;99.90;;;;;;4950688;28;20051;-72
2022/03/12 02:30:47;;;;;;;10.18;2.88;;;8.70;99.90;;;;;;4936330;29;20055;-72
2022/03/12 02:33:15;;;;;;;10.88;2.50;;;8.70;99.90;;;;;;4948504;28;20055;-72
2022/03/12 02:35:42;;;;;;;10.15;3.38;;;8.60;99.90;;;;;;4952858;29;20055;-72
2022/03/12 02:38:09;;;;;;;13.00;2.70;;;8.60;99.90;;;;;;4951907;28;20452;-72
2022/03/12 02:40:36;;;;;;;15.05;3.33;;;8.60;99.90;;;;;;4936115;29;20051;-73
2022/03/12 02:43:03;;;;;;;11.02;2.85;;;8.50;99.90;;;;;;4955002;29;20137;-72
2022/03/12 02:45:30;;;;;;;11.40;3.08;;;8.50;99.90;;;;;;4955558;29;20133;-73
2022/03/12 02:47:57;;;;;;;11.60;3.13;;;8.50;99.90;;;;;;4955435;29;20047;-72
2022/03/12 02:50:24;;;;;;;11.48;2.70;;;8.50;99.90;;;;;;4955028;29;20131;-72
2022/03/12 02:52:52;;;;;;;12.05;2.97;;;8.40;99.90;;;;;;4920528;29;20071;-73
2022/03/12 02:55:21;;;;;;;11.90;3.17;;;8.40;99.90;;;;;;4921019;29;20126;-72
2022/03/12 02:57:49;;;;;;;10.80;2.75;;;8.40;99.90;;;;;;4954900;28;20052;-73
2022/03/12 03:00:18;;;;;;;12.73;4.40;;;8.40;99.90;;;;;;4954543;29;20051;-72
2022/03/12 03:02:56;;;;;;;9.50;2.07;;;8.40;99.90;;;;;;4915534;29;20079;-72
2022/03/12 03:08:04;;;;;;;15.60;3.85;;;8.30;99.90;;;;;;4940239;29;20149;-72
2022/03/12 03:10:34;;;;;;;7.90;2.65;;;8.30;99.90;;;;;;4954416;28;20058;-72
2022/03/12 03:13:17;;;;;;;9.00;2.95;;;8.20;99.90;;;;;;4969988;28;20051;-73
2022/03/12 03:15:49;;;;;;;9.93;2.90;;;8.10;99.90;;;;;;4961173;28;20415;-73
2022/03/12 03:18:19;;;;;;;7.25;1.98;;;8.10;99.90;;;;;;4954478;28;20047;-72
2022/03/12 03:20:46;;;;;;;11.38;2.88;;;8.10;99.90;;;;;;4937318;29;20551;-72
2022/03/12 03:23:14;;;;;;;8.27;2.25;;;8.10;99.90;;;;;;4954701;29;20047;-72
2022/03/12 03:25:46;;;;;;;13.07;3.72;;;8.10;99.90;;;;;;4947614;28;20055;-72
2022/03/12 03:28:14;;;;;;;15.57;4.07;;;8.10;99.90;;;;;;4952940;28;20055;-72
2022/03/12 03:30:41;;;;;;;12.15;3.20;;;8.20;99.90;;;;;;4954163;29;20051;-72
2022/03/12 03:33:16;;;;;;;11.18;1.75;;;8.20;99.90;;;;;;4937668;29;20064;-72
2022/03/12 03:35:45;;;;;;;11.00;2.47;;;8.20;99.90;;;;;;4954332;29;20069;-72
2022/03/12 03:38:14;;;;;;;10.57;3.05;;;8.20;99.90;;;;;;4954427;28;20130;-72
2022/03/12 03:40:42;;;;;;;13.77;4.00;;;8.20;99.90;;;;;;4937891;29;20130;-72
2022/03/12 03:43:13;;;;;;;20.25;3.92;;;8.30;99.90;;;;;;4921301;29;20070;-72
2022/03/12 03:45:44;;;;;;;15.00;2.45;;;8.30;99.90;;;;;;4954763;29;20051;-71
2022/03/12 03:48:16;;;;;;;12.63;2.85;;;8.30;99.90;;;;;;4938738;29;20059;-72
2022/03/12 03:50:44;;;;;;;6.13;1.63;;;8.30;99.90;;;;;;4938303;29;20082;-72
2022/03/12 03:53:16;;;;;;;9.25;2.90;;;8.30;99.90;;;;;;4934236;29;20404;-72
2022/03/12 03:55:43;;;;;;;15.40;2.83;;;8.30;99.90;;;;;;4932425;29;20077;-73
2022/03/12 03:58:14;;;;;;;8.75;2.20;;;8.30;99.90;;;;;;4953971;28;20047;-72
2022/03/12 04:01:01;;;;;;;6.18;2.30;;;8.30;99.90;;;;;;4954120;29;20137;-72
2022/03/12 04:03:32;;;;;;;12.43;2.30;;;8.30;99.90;;;;;;4958975;28;20398;-72
2022/03/12 04:06:03;;;;;;;9.38;2.97;;;8.30;99.90;;;;;;4920113;29;20185;-72
2022/03/12 04:08:32;;;;;;;5.88;2.50;;;8.30;99.90;;;;;;4914841;29;20130;-72
2022/03/12 04:11:04;;;;;;;7.57;2.30;;;8.30;99.90;;;;;;4953530;29;20069;-72
2022/03/12 04:13:32;;;;;;;10.45;2.38;;;8.30;99.90;;;;;;4954173;29;20054;-72
2022/03/12 04:15:59;;;;;;;13.27;3.38;;;8.20;99.90;;;;;;4919175;29;20063;-72
2022/03/12 04:18:26;;;;;;;6.72;2.05;;;8.20;99.90;;;;;;4911092;29;20058;-72
2022/03/12 04:20:54;;;;;;;7.88;3.20;;;8.10;99.90;;;;;;4949222;29;20047;-72
2022/03/12 04:23:21;;;;;;;8.48;2.28;;;8.20;99.90;;;;;;4954619;28;20047;-72
2022/03/12 04:25:49;;;;;;;6.10;2.03;;;8.20;99.90;;;;;;4933887;29;20047;-72
2022/03/12 04:28:17;;;;;;;14.73;3.03;;;8.20;99.90;;;;;;4951595;28;20066;-72
2022/03/12 04:30:44;;;;;;;5.90;2.67;;;8.20;99.90;;;;;;4953772;29;20058;-72
2022/03/12 04:33:11;;;;;;;20.58;4.22;;;8.20;99.90;;;;;;4953571;29;20059;-72
2022/03/12 04:35:38;;;;;;;6.80;2.05;;;8.20;99.90;;;;;;4954221;28;20513;-72
2022/03/12 04:38:09;;;;;;;6.82;2.08;;;8.20;99.90;;;;;;4953402;28;20053;-72
2022/03/12 04:40:38;;;;;;;12.63;2.83;;;8.20;99.90;;;;;;4936825;29;20066;-72
2022/03/12 04:43:06;;;;;;;6.63;2.30;;;8.20;99.90;;;;;;4937704;29;20058;-72
2022/03/12 04:45:33;;;;;;;6.80;2.03;;;8.10;99.90;;;;;;4952889;29;20293;-72
2022/03/12 04:48:00;;;;;;;5.50;2.47;;;8.10;99.90;;;;;;4937049;29;20134;-68
2022/03/12 04:50:28;;;;;;;9.15;2.13;;;8.00;99.90;;;;;;4952298;29;20054;-72
2022/03/12 04:52:59;;;;;;;10.48;2.00;;;8.10;99.90;;;;;;4954430;28;20059;-71
2022/03/12 04:55:28;;;;;;;4.57;1.75;;;8.10;99.90;;;;;;4951789;29;20562;-72
2022/03/12 04:57:55;;;;;;;12.23;2.33;;;8.10;99.90;;;;;;4953135;28;20058;-72
2022/03/12 05:00:29;;;;;;;7.85;1.85;;;8.20;99.90;;;;;;4953288;29;20058;-72
2022/03/12 05:03:03;;;;;;;11.02;3.08;;;8.20;99.90;;;;;;4921418;28;20503;-72
2022/03/12 05:05:30;;;;;;;7.85;2.40;;;8.20;99.90;;;;;;4940443;29;20047;-72
2022/03/12 05:07:59;;;;;;;8.35;1.83;;;8.10;99.90;;;;;;4953104;28;20511;-72
2022/03/12 05:10:29;;;;;;;7.03;2.13;;;8.10;99.90;;;;;;4951905;29;20451;-72
2022/03/12 05:13:00;;;;;;;7.28;2.10;;;8.10;99.90;;;;;;4910856;29;20047;-71
2022/03/12 05:15:38;;;;;;;10.20;2.40;;;8.20;99.90;;;;;;4952393;29;20334;-72
2022/03/12 05:18:12;;;;;;;10.55;2.95;;;8.10;99.90;;;;;;4915703;29;20107;-71
2022/03/12 05:20:44;;;;;;;6.55;1.50;;;8.10;99.90;;;;;;4948473;29;20051;-71
2022/03/12 05:23:13;;;;;;;9.65;1.70;;;8.10;99.90;;;;;;4947875;29;20047;-71
2022/03/12 05:25:45;;;;;;;9.23;1.95;;;8.10;99.90;;;;;;4953654;28;20043;-72
2022/03/12 05:28:26;;;;;;;6.82;2.03;;;8.20;99.90;;;;;;4936437;28;20165;-71
2022/03/12 05:30:56;;;;;;;8.32;2.30;;;8.20;99.90;;;;;;4952168;29;20055;-71
2022/03/12 05:33:23;;;;;;;7.95;2.05;;;8.20;99.90;;;;;;4949930;28;20476;-70
2022/03/12 05:35:54;;;;;;;7.65;2.58;;;8.20;99.90;;;;;;4941990;28;20124;-72
2022/03/12 05:38:23;;;;;;;11.70;2.40;;;8.20;99.90;;;;;;4952847;28;20408;-70
2022/03/12 05:40:50;;;;;;;8.00;2.00;;;8.20;99.90;;;;;;4941840;29;20054;-70
2022/03/12 05:43:17;;;;;;;11.45;2.63;;;8.20;99.90;;;;;;4951211;29;20138;-70
2022/03/12 05:45:45;;;;;;;6.95;1.98;;;8.20;99.90;;;;;;4937030;29;20145;-70
2022/03/12 05:48:14;;;;;;;5.75;1.88;;;8.20;99.90;;;;;;4951597;29;20054;-70
2022/03/12 05:50:42;;;;;;;10.40;1.95;;;8.10;99.90;;;;;;4953144;28;20270;-70
2022/03/12 05:53:10;;;;;;;10.52;2.03;;;8.10;99.90;;;;;;4954942;28;20561;-72
2022/03/12 05:55:39;;;;;;;10.60;2.92;;;8.10;99.90;;;;;;4945924;28;20047;-70
2022/03/12 05:58:07;;;;;;;8.70;2.30;;;8.10;99.90;;;;;;4936559;29;21022;-72
2022/03/12 06:00:35;;;;;;;8.45;1.77;;;8.00;99.90;;;;;;4936328;29;20579;-72
2022/03/12 06:03:02;;;;;;;9.27;2.20;;;7.90;99.90;;;;;;4916471;29;20051;-72
2022/03/12 06:05:31;;;;;;;6.95;1.67;;;7.90;99.90;;;;;;4933681;29;20054;-72
2022/03/12 06:07:59;;;;;;;8.07;2.38;;;7.80;99.90;;;;;;4920481;29;20410;-70
2022/03/12 06:10:28;;;;;;;5.40;1.75;;;7.80;99.90;;;;;;4935936;29;20263;-70
2022/03/12 06:12:56;;;;;;;16.73;3.15;;;7.70;99.90;;;;;;4936649;29;20715;-70
2022/03/12 06:15:25;;;;;;;10.43;2.05;;;7.70;99.90;;;;;;4953804;28;20051;-70
2022/03/12 06:17:52;;;;;;;12.40;2.65;;;7.70;99.90;;;;;;4924143;29;20523;-70
2022/03/12 06:20:22;;;;;;;11.18;2.90;;;7.60;99.90;;;;;;4956558;28;20505;-70
2022/03/12 06:22:50;;;;;;;10.55;2.70;;;7.70;99.90;;;;;;4921440;29;20054;-71
2022/03/12 06:25:17;;;;;;;15.63;3.00;;;7.60;99.90;;;;;;4921048;29;20047;-71
2022/03/12 06:27:53;;;;;;;6.63;2.15;;;7.60;99.90;;;;;;4952249;29;20134;-71
2022/03/12 06:30:26;;;;;;;11.98;3.72;;;7.60;99.90;;;;;;4955118;29;20043;-71
2022/03/12 06:32:56;;;;;;;9.18;1.92;;;7.60;99.90;;;;;;4954238;28;20057;-70
2022/03/12 06:35:24;;;;;;;6.20;2.67;;;7.60;99.90;;;;;;4952165;29;20043;-70
2022/03/12 06:37:51;;;;;;;9.75;3.25;;;7.50;99.90;;;;;;4944934;28;20497;-71
2022/03/12 06:40:18;;;;;;;12.88;2.38;;;7.50;99.90;;;;;;4962342;28;20062;-71
2022/03/12 06:42:47;;;;;;;10.25;3.08;;;7.50;99.90;;;;;;4955462;28;20057;-71
2022/03/12 06:45:15;;;;;;;11.60;3.58;;;7.50;99.90;;;;;;4954940;29;20043;-71
2022/03/12 06:47:43;;;;;;;10.32;2.22;;;7.50;99.90;;;;;;4954700;29;20055;-74
2022/03/12 06:50:13;;;;;;;15.40;3.35;;;7.60;99.90;;;;;;4929061;29;20052;-70
2022/03/12 06:52:43;;;;;;;8.55;2.40;;;7.60;99.90;;;;;;4938184;29;20066;-71
2022/03/12 06:55:10;;;;;;;10.98;2.40;;;7.60;99.90;;;;;;4938061;29;20046;-71
2022/03/12 06:57:37;;;;;;;15.35;3.30;;;7.60;99.90;;;;;;4956322;28;20051;-71
2022/03/12 07:00:06;;;;;;;13.68;3.60;;;7.60;99.90;;;;;;4953695;28;20137;-72
2022/03/12 07:02:32;;;;;;;23.17;3.40;;;7.70;99.90;;;;;;4939108;28;20051;-71
2022/03/12 07:05:01;;;;;;;13.20;2.95;;;7.70;99.90;;;;;;4948648;28;20051;-71
2022/03/12 07:07:28;;;;;;;10.52;2.65;;;7.70;99.90;;;;;;4954257;28;20065;-71
2022/03/12 07:09:57;;;;;;;14.98;4.13;;;7.70;99.90;;;;;;4954172;29;20047;-71
2022/03/12 07:12:27;;;;;;;13.02;3.08;;;7.70;99.90;;;;;;4954440;29;20082;-73
2022/03/12 07:14:56;;;;;;;7.68;2.50;;;7.70;99.90;;;;;;4954209;29;20052;-71
2022/03/12 07:17:23;;;;;;;15.98;4.15;;;7.70;99.90;;;;;;4954382;29;20384;-72
2022/03/12 07:19:50;;;;;;;8.52;2.90;;;7.70;99.90;;;;;;4954424;29;20086;-71
2022/03/12 07:22:17;;;;;;;15.02;4.28;;;7.80;99.90;;;;;;4953739;29;20090;-71
2022/03/12 07:24:44;;;;;;;11.80;2.83;;;7.80;99.90;;;;;;4944009;28;20056;-72
2022/03/12 07:27:12;;;;;;;16.23;3.20;;;7.90;99.90;;;;;;4962232;28;20062;-71
2022/03/12 07:29:39;;;;;;;11.23;3.17;;;7.90;99.90;;;;;;4953882;28;20051;-71
2022/03/12 07:32:06;;;;;;;16.88;3.30;;;8.00;99.90;;;;;;4953977;28;20047;-71
2022/03/12 07:34:33;;;;;;;19.60;4.32;;;8.10;99.90;;;;;;4938578;29;20063;-71
2022/03/12 07:37:00;;;;;;;16.08;4.00;;;8.20;99.90;;;;;;4953893;28;20491;-71
2022/03/12 07:39:28;;;;;;;10.45;3.50;;;8.30;99.90;;;;;;4953595;29;20137;-73
2022/03/12 07:41:55;;;;;;;17.98;3.67;;;8.40;99.90;;;;;;4968418;28;20074;-72
2022/03/12 07:44:23;;;;;;;11.07;3.47;;;8.40;99.90;;;;;;4937740;29;20062;-72
2022/03/12 07:46:50;;;;;;;17.60;8.20;;;8.50;99.90;;;;;;4938721;29;20089;-71
2022/03/12 07:49:17;;;;;;;18.55;4.43;;;8.60;99.90;;;;;;4953523;29;20554;-71
2022/03/12 07:51:44;;;;;;;16.75;3.80;;;8.60;99.90;;;;;;4954242;28;20986;-73
2022/03/12 07:54:14;;;;;;;17.70;3.72;;;8.60;99.90;;;;;;4954044;28;20075;-72
2022/03/12 07:56:42;;;;;;;14.20;4.30;;;8.60;99.90;;;;;;4955703;28;20074;-72
2022/03/12 07:59:10;;;;;;;11.57;3.10;;;8.60;99.90;;;;;;4938356;29;20050;-72
2022/03/12 08:01:39;;;;;;;17.35;4.40;;;8.70;99.90;;;;;;4938276;28;20055;-74
2022/03/12 08:04:06;;;;;;;15.20;4.30;;;8.70;99.90;;;;;;4954086;28;20050;-69
2022/03/12 08:06:34;;;;;;;17.08;7.25;;;8.80;99.90;;;;;;4922120;29;20142;-69
2022/03/12 08:09:01;;;;;;;14.95;3.97;;;8.80;99.90;;;;;;4938811;28;20054;-71
2022/03/12 08:11:32;;;;;;;16.13;3.90;;;8.90;99.90;;;;;;4928507;29;20056;-71
2022/03/12 08:14:06;;;;;;;14.73;3.65;;;8.90;99.90;;;;;;4953644;29;20057;-71
2022/03/12 08:16:34;;;;;;;16.40;2.80;;;8.90;99.90;;;;;;4938450;29;20507;-71
2022/03/12 08:19:05;;;;;;;19.30;4.88;;;9.00;99.90;;;;;;4954784;28;20055;-71
2022/03/12 08:21:32;;;;;;;13.38;3.58;;;9.10;99.90;;;;;;4937678;29;20043;-71
2022/03/12 08:23:59;;;;;;;9.88;3.08;;;9.10;99.90;;;;;;4953382;29;20473;-71
2022/03/12 08:26:29;;;;;;;;;;;9.10;99.90;;;;;;4923108;29;20094;-71
2022/03/12 08:28:56;;;;;;;12.80;3.45;;;9.20;99.90;;;;;;4934019;29;19923;-71
2022/03/12 08:31:23;;;;;;;43.95;27.00;;;9.20;99.90;;;;;;4912243;28;20472;-66
2022/03/12 08:33:51;;;;;;;20.25;5.20;;;9.20;99.90;;;;;;4937475;29;20126;-71
2022/03/12 08:36:18;;;;;;;24.65;6.85;;;9.40;99.90;;;;;;4938009;28;20133;-71
2022/03/12 08:38:45;;;;;;;14.93;3.55;;;9.30;99.90;;;;;;4952307;28;20053;-72
2022/03/12 08:41:15;;;;;;;23.13;5.63;;;9.30;99.90;;;;;;4953044;29;20190;-71
2022/03/12 08:43:42;;;;;;;12.82;3.28;;;9.30;99.90;;;;;;4953193;29;20043;-71
2022/03/12 08:46:09;;;;;;;14.20;3.83;;;9.30;99.90;;;;;;4952838;29;20143;-71
2022/03/12 08:48:38;;;;;;;20.02;4.93;;;9.30;99.90;;;;;;4913809;29;20131;-72
2022/03/12 08:51:05;;;;;;;31.23;10.77;;;9.30;99.90;;;;;;4939286;28;20051;-64
2022/03/12 08:53:33;;;;;;;12.88;4.88;;;9.30;99.90;;;;;;4952861;29;20047;-69
2022/03/12 08:56:01;;;;;;;29.90;10.95;;;9.40;99.90;;;;;;4953620;29;20149;-69
2022/03/12 08:58:29;;;;;;;18.52;5.22;;;9.50;99.90;;;;;;4918188;29;20083;-69
2022/03/12 09:01:00;;;;;;;13.73;4.05;;;9.60;99.90;;;;;;4943010;29;20666;-69
2022/03/12 09:03:27;;;;;;;27.20;5.47;;;9.70;99.90;;;;;;4954264;28;20051;-70
2022/03/12 09:05:54;;;;;;;14.40;2.78;;;9.70;99.90;;;;;;4937175;29;20521;-69
2022/03/12 09:08:21;;;;;;;15.65;4.38;;;9.70;99.90;;;;;;4952724;28;20054;-70
2022/03/12 09:10:48;;;;;;;14.23;4.50;;;9.80;99.90;;;;;;4936376;29;20050;-70
2022/03/12 09:13:17;;;;;;;20.58;5.15;;;9.90;99.90;;;;;;4951520;28;20043;-70
2022/03/12 09:15:44;;;;;;;13.85;3.85;;;10.00;99.90;;;;;;4953938;28;20130;-70
2022/03/12 09:18:11;;;;;;;20.58;4.78;;;10.20;99.90;;;;;;4952528;29;20082;-70
2022/03/12 09:20:49;;;;;;;11.52;3.33;;;10.30;99.90;;;;;;4937086;29;20047;-70
2022/03/12 09:23:20;;;;;;;9.98;3.00;;;10.30;99.90;;;;;;4953234;28;20130;-69
2022/03/12 09:25:48;;;;;;;9.35;2.95;;;10.30;99.90;;;;;;4952207;29;20051;-70
2022/03/12 09:28:16;;;;;;;11.13;3.58;;;10.30;99.90;;;;;;4925511;29;20055;-70
2022/03/12 09:30:43;;;;;;;13.75;4.18;;;10.20;99.90;;;;;;4935854;29;20055;-69
2022/03/12 09:33:11;;;;;;;18.38;4.07;;;10.20;99.90;;;;;;4922001;29;20190;-70
2022/03/12 09:35:38;;;;;;;14.88;3.90;;;10.20;99.90;;;;;;4945375;29;20142;-70
2022/03/12 09:38:06;;;;;;;20.77;4.03;;;10.10;99.90;;;;;;4953687;28;20051;-69
2022/03/12 09:40:33;;;;;;;17.30;4.28;;;10.10;99.90;;;;;;4953292;28;20051;-70
2022/03/12 09:43:00;;;;;;;13.65;4.30;;;10.10;99.90;;;;;;4952228;29;20398;-70
2022/03/12 09:45:30;;;;;;;15.32;4.03;;;10.20;99.90;;;;;;4936120;29;20102;-70
2022/03/12 09:47:57;;;;;;;12.38;2.90;;;10.10;99.90;;;;;;4953186;29;20052;-70
2022/03/12 09:50:24;;;;;;;9.63;3.60;;;10.10;99.90;;;;;;4938215;28;20051;-70
2022/03/12 09:52:51;;;;;;;12.07;3.15;;;10.20;99.90;;;;;;4956122;29;20051;-71
2022/03/12 09:55:19;;;;;;;20.65;4.90;;;10.30;99.90;;;;;;4959724;28;20070;-69
2022/03/12 09:57:48;;;;;;;17.17;3.47;;;10.50;99.90;;;;;;4963029;28;20049;-70
2022/03/12 10:00:15;;;;;;;11.90;3.08;;;10.70;99.90;;;;;;4967852;28;20047;-69
2022/03/12 10:02:43;;;;;;;14.43;3.63;;;10.80;99.90;;;;;;4936476;29;20582;-70
2022/03/12 10:05:16;;;;;;;18.27;4.40;;;10.80;99.90;;;;;;4931795;29;20043;-70
2022/03/12 10:07:44;;;;;;;15.35;3.38;;;10.90;99.90;;;;;;4956072;28;20055;-73
2022/03/12 10:10:15;;;;;;;13.07;2.95;;;10.80;99.90;;;;;;4939984;29;20051;-70
2022/03/12 10:12:43;;;;;;;15.40;3.75;;;10.80;99.90;;;;;;4940408;29;20059;-75
2022/03/12 10:15:11;;;;;;;18.60;3.22;;;10.70;99.90;;;;;;4956187;29;20475;-72
2022/03/12 10:17:38;;;;;;;11.68;3.20;;;10.50;99.90;;;;;;4955374;28;20388;-70
2022/03/12 10:20:10;;;;;;;40.88;15.27;;;10.60;99.90;;;;;;4955850;29;20123;-76
2022/03/12 10:22:42;;;;;;;17.13;4.57;;;10.60;99.90;;;;;;4957656;28;20055;-78
2022/03/12 10:25:09;;;;;;;13.60;3.90;;;10.60;99.90;;;;;;4942551;29;20043;-76
2022/03/12 10:27:36;;;;;;;13.32;4.25;;;10.70;99.90;;;;;;4943713;29;20071;-75
2022/03/12 10:30:05;;;;;;;17.23;5.75;;;10.70;99.90;;;;;;4955775;28;20059;-71
2022/03/12 10:32:41;;;;;;;14.82;3.15;;;10.60;99.90;;;;;;4955255;28;20126;-68
2022/03/12 10:35:09;;;;;;;11.48;3.75;;;10.60;99.90;;;;;;4940709;29;20050;-69
2022/03/12 10:37:36;;;;;;;12.05;3.47;;;10.70;99.90;;;;;;4939989;29;20055;-65
2022/03/12 10:40:06;;;;;;;12.27;3.92;;;10.70;99.90;;;;;;4956166;29;20069;-66
2022/03/12 10:42:34;;;;;;;13.88;3.50;;;10.70;99.90;;;;;;4956032;29;20051;-66
2022/03/12 10:45:12;;;;;;;16.52;4.55;;;10.70;99.90;;;;;;4955568;29;20043;-66
2022/03/12 10:47:59;;;;;;;10.80;3.42;;;10.60;98.00;;;;;;4940196;29;20075;-66
2022/03/12 10:50:36;;;;;;;15.65;3.53;;;10.40;98.60;;;;;;4955051;29;20134;-66
2022/03/12 10:53:05;;;;;;;15.45;3.03;;;10.40;99.50;;;;;;4955200;29;20047;-66
2022/03/12 10:55:39;;;;;;;14.55;3.92;;;10.20;98.80;;;;;;4955439;29;20051;-66
2022/03/12 10:58:26;;;;;;;7.30;3.10;;;10.20;98.70;;;;;;4939519;29;20122;-66
2022/03/12 11:00:55;;;;;;;12.85;3.65;;;10.20;99.60;;;;;;4954977;28;20055;-66
2022/03/12 11:03:32;;;;;;;12.48;4.53;;;10.40;99.90;;;;;;4938394;29;20126;-66
2022/03/12 11:06:00;;;;;;;11.82;2.92;;;10.40;99.80;;;;;;4954109;29;20047;-62
2022/03/12 11:08:31;;;;;;;16.48;3.72;;;10.50;99.90;;;;;;4937191;29;20096;-61
2022/03/12 11:11:12;;;;;;;53.55;31.77;;;10.70;99.90;;;;;;4935581;29;20056;-61
2022/03/12 11:13:44;;;;;;;18.45;8.93;;;11.10;97.70;;;;;;4956508;29;20079;-63
2022/03/12 11:16:19;;;;;;;16.85;9.88;;;11.30;96.10;;;;;;4955714;28;20062;-63
2022/03/12 11:19:07;;;;;;;20.23;7.78;;;11.40;95.60;;;;;;4955450;28;20553;-67
2022/03/12 11:21:39;;;;;;;10.52;3.47;;;11.30;93.80;;;;;;4956289;28;20111;-69
2022/03/12 11:24:09;;;;;;;8.85;2.22;;;11.40;94.30;;;;;;4941208;28;20039;-75
2022/03/12 11:26:46;;;;;;;8.35;3.78;;;11.40;93.20;;;;;;4983641;28;20047;-76
2022/03/12 11:29:13;;;;;;;15.90;3.72;;;11.30;92.50;;;;;;4962472;28;20130;-76
2022/03/12 11:32:04;;;;;;;15.13;2.65;;;11.20;94.00;;;;;;4964648;28;20047;-78
2022/03/12 11:34:39;;;;;;;9.82;3.13;;;11.30;94.90;;;;;;4961641;28;20069;-77
2022/03/12 11:37:20;;;;;;;13.50;3.58;;;11.40;96.10;;;;;;4978926;28;20039;-78
2022/03/12 11:39:51;;;;;;;22.95;7.45;;;11.50;95.10;;;;;;4961150;28;20043;-78
2022/03/12 11:42:23;;;;;;;17.20;7.13;;;11.60;95.10;;;;;;4945410;29;20050;-79
2022/03/12 11:44:57;;;;;;;16.40;8.77;;;11.90;94.90;;;;;;4958077;28;20051;-76
2022/03/12 11:47:30;;;;;;;13.98;5.38;;;11.90;94.10;;;;;;4985616;28;20121;-74
2022/03/12 11:49:58;;;;;;;15.48;4.65;;;11.80;92.30;;;;;;4947508;28;20061;-76
2022/03/12 11:52:25;;;;;;;16.42;4.40;;;12.00;91.90;;;;;;4958210;28;20059;-75
2022/03/12 11:54:54;;;;;;;17.77;4.55;;;11.90;91.70;;;;;;4962201;28;20069;-73
2022/03/12 11:57:23;;;;;;;15.48;4.55;;;11.90;92.50;;;;;;4947629;28;20046;-77
2022/03/12 11:59:51;;;;;;;101.57;63.78;;;11.80;92.50;;;;;;4954100;28;20043;-65
2022/03/12 12:02:22;;;;;;;18.30;4.50;;;11.80;92.30;;;;;;4938190;29;20047;-70
2022/03/12 12:04:53;;;;;;;10.40;3.45;;;11.90;91.50;;;;;;4952204;28;20075;-68
2022/03/12 12:07:21;;;;;;;10.32;4.10;;;12.00;91.90;;;;;;4953645;28;20071;-73
2022/03/12 12:09:48;;;;;;;11.15;3.05;;;12.00;91.00;;;;;;4940466;29;20080;-69
2022/03/12 12:12:15;;;;;;;15.45;4.10;;;12.00;92.20;;;;;;4932105;28;20054;-69
2022/03/12 12:14:43;;;;;;;12.82;3.83;;;12.10;92.10;;;;;;4950178;29;20134;-68
2022/03/12 12:17:10;;;;;;;11.40;3.50;;;12.10;91.40;;;;;;4951574;29;20507;-68
2022/03/12 12:19:37;;;;;;;12.25;4.03;;;12.10;92.10;;;;;;4935965;29;20130;-69
2022/03/12 12:22:07;;;;;;;8.13;2.78;;;12.20;92.30;;;;;;4969865;28;20061;-69
2022/03/12 12:24:36;;;;;;;10.48;3.08;;;12.30;92.30;;;;;;4971336;28;20067;-71
2022/03/12 12:27:04;;;;;;;15.65;4.10;;;12.40;91.00;;;;;;4970467;28;20046;-67
2022/03/12 12:29:54;;;;;;;17.88;6.00;;;12.40;91.60;;;;;;4955559;28;20110;-69
2022/03/12 12:32:23;;;;;;;12.20;4.30;;;12.50;90.30;;;;;;4957076;28;20075;-71
2022/03/12 12:34:57;;;;;;;11.23;3.10;;;12.30;89.90;;;;;;5078375;28;20386;-72
2022/03/12 12:37:57;;;;;;;9.98;3.75;;;12.30;88.30;;;;;;5075535;28;20140;-70
2022/03/12 12:40:38;;;;;;;10.52;3.63;;;12.20;90.30;;;;;;5067278;28;20045;-71
2022/03/12 12:43:13;;;;;;;12.73;4.43;;;12.30;90.70;;;;;;5050409;28;20109;-70
2022/03/12 12:45:52;;;;;;;10.38;3.22;;;12.40;90.50;;;;;;5065524;28;20397;-71
2022/03/12 12:48:42;;;;;;;9.32;3.83;;;12.50;86.10;;;;;;5045413;28;20095;-71
2022/03/12 12:51:16;;;;;;;7.38;2.88;;;12.50;85.40;;;;;;5071127;28;20310;-66
2022/03/12 12:53:47;;;;;;;14.38;4.00;;;12.40;87.90;;;;;;5073363;28;20052;-67
2022/03/12 12:56:30;;;;;;;12.52;2.92;;;12.50;90.10;;;;;;5066987;28;20135;-67
2022/03/12 12:58:58;;;;;;;13.20;4.57;;;12.50;84.20;;;;;;5068959;28;20057;-68
2022/03/12 13:01:40;;;;;;;9.77;3.20;;;12.40;87.40;;;;;;5068337;28;20488;-68
2022/03/12 13:04:12;;;;;;;8.07;2.63;;;12.50;85.80;;;;;;5068126;28;20060;-67